Hauptseite
METAR-TAF:

METAR-TAF

Flughäfen :

Flughafen Stettin-Goleniów

Stettin, Polen

Breite: 53-35N, Länge: 014-54E, Höhe: 1 m

Beobachtung

Neuester Wetterbericht von vor 17 Minuten, um 00:00 UTC
Wind 1 kt aus unterschiedlichen Richtungen
Temperatur -4°C
Luftfeuchtigkeit 86%
Luftdruck 1039 hPa
Sichtweite 10 km oder mehr
Leicht bewölkt in der Höhe von 4300 ft

METAR: EPSC 050000Z VRB01KT 9999 FEW043 M04/M06 Q1039

Zeit: 01:17 (00:17 UTC)

Prognose

Neuester Wetterbericht von vor 47 Minuten, um 23:30 UTC
Gültige Prognose vom 05 um 00 UTC bis 05 um 24 UTC
Wind 4 kt aus West/Nordwest
Sichtweite 10 km oder mehr
Aufgelockert bewölkt in der Höhe von 4000 ft
Wahrscheinlichkeit 40%
vom 05 um 00 UTC bis 05 um 07 UTC
Sichtweite: 2000 m
feuchter Dunst
Übergehend zu
vom 05 um 07 UTC bis 05 um 10 UTC
Wind 10 kt aus Süd

TAF: EPSC 042330Z 0500/0524 30004KT 9999 SCT040 PROB40 0500/0507 2000 BR BECMG 0507/0510 18010KT

Wetterbeobachtungen und Prognosen von mehr als 4000 Flughäfen (METAR und TAF Bericht).

Die verfügbaren Stationen werden durch gelbe und rote Markierungen auf der Karte dargestellt.

Führen Sie die Maus auf sie, um den Namen der Station zu sehen.

Darauf klicken, um die Beobachtung von Wetterbeobachtungen und Prognosen zu sehen.

Um die Karte zu ändern : klicken Sie auf den grünen Tasten mit einem schwarzen Kreuz Zum Vergrößern, auf den grünen Button mit einem Gedankenstrich zu verkleinern, oder auf die grünen Pfeile für benachbarte Karten.


METAR-TAF: